sensor_id;sensor_type;location;lat;lon;timestamp;pressure;altitude;pressure_sealevel;temperature
31528;BMP280;10206;48.012;10.030;2023-04-24T00:00:29;93932.56;;;12.79
31528;BMP280;10206;48.012;10.030;2023-04-24T00:02:57;93928.22;;;12.99
31528;BMP280;10206;48.012;10.030;2023-04-24T00:05:24;93926.66;;;12.96
31528;BMP280;10206;48.012;10.030;2023-04-24T00:07:50;93934.16;;;13.21
31528;BMP280;10206;48.012;10.030;2023-04-24T00:10:20;93936.72;;;13.31
31528;BMP280;10206;48.012;10.030;2023-04-24T00:12:46;93927.78;;;13.30
31528;BMP280;10206;48.012;10.030;2023-04-24T00:15:13;93926.88;;;13.25
31528;BMP280;10206;48.012;10.030;2023-04-24T00:17:39;93928.00;;;13.34
31528;BMP280;10206;48.012;10.030;2023-04-24T00:20:06;93931.50;;;13.09
31528;BMP280;10206;48.012;10.030;2023-04-24T00:22:32;93923.09;;;13.19
31528;BMP280;10206;48.012;10.030;2023-04-24T00:24:58;93920.56;;;13.23
31528;BMP280;10206;48.012;10.030;2023-04-24T00:27:25;93924.44;;;13.32
31528;BMP280;10206;48.012;10.030;2023-04-24T00:29:51;93916.41;;;13.22
31528;BMP280;10206;48.012;10.030;2023-04-24T00:32:17;93909.34;;;13.31
31528;BMP280;10206;48.012;10.030;2023-04-24T00:34:43;93915.41;;;13.29
31528;BMP280;10206;48.012;10.030;2023-04-24T00:37:09;93913.09;;;12.98
31528;BMP280;10206;48.012;10.030;2023-04-24T00:39:35;93909.13;;;13.01
31528;BMP280;10206;48.012;10.030;2023-04-24T00:42:01;93912.81;;;13.19
31528;BMP280;10206;48.012;10.030;2023-04-24T00:44:28;93911.06;;;12.99
31528;BMP280;10206;48.012;10.030;2023-04-24T00:46:55;93908.59;;;12.91
31528;BMP280;10206;48.012;10.030;2023-04-24T00:49:24;93911.22;;;12.89
31528;BMP280;10206;48.012;10.030;2023-04-24T00:51:50;93902.41;;;12.91
31528;BMP280;10206;48.012;10.030;2023-04-24T00:54:17;93897.22;;;12.58
31528;BMP280;10206;48.012;10.030;2023-04-24T00:56:44;93897.66;;;12.91
31528;BMP280;10206;48.012;10.030;2023-04-24T00:59:12;93894.66;;;12.87
31528;BMP280;10206;48.012;10.030;2023-04-24T01:01:39;93896.28;;;13.04
31528;BMP280;10206;48.012;10.030;2023-04-24T01:04:09;93889.88;;;13.13
31528;BMP280;10206;48.012;10.030;2023-04-24T01:06:39;93884.94;;;13.09
31528;BMP280;10206;48.012;10.030;2023-04-24T01:09:06;93884.94;;;13.09
31528;BMP280;10206;48.012;10.030;2023-04-24T01:11:34;93892.09;;;13.28
31528;BMP280;10206;48.012;10.030;2023-04-24T01:14:00;93884.41;;;13.38
31528;BMP280;10206;48.012;10.030;2023-04-24T01:16:27;93879.22;;;13.31
31528;BMP280;10206;48.012;10.030;2023-04-24T01:18:53;93886.00;;;13.30
31528;BMP280;10206;48.012;10.030;2023-04-24T01:21:21;93884.78;;;13.33
31528;BMP280;10206;48.012;10.030;2023-04-24T01:23:49;93887.44;;;13.31
31528;BMP280;10206;48.012;10.030;2023-04-24T01:26:17;93882.66;;;13.45
31528;BMP280;10206;48.012;10.030;2023-04-24T01:28:46;93879.09;;;13.29
31528;BMP280;10206;48.012;10.030;2023-04-24T01:31:14;93869.34;;;13.25
31528;BMP280;10206;48.012;10.030;2023-04-24T01:33:42;93874.19;;;13.13
31528;BMP280;10206;48.012;10.030;2023-04-24T01:36:09;93881.53;;;13.22
31528;BMP280;10206;48.012;10.030;2023-04-24T01:38:36;93873.91;;;13.21
31528;BMP280;10206;48.012;10.030;2023-04-24T01:41:02;93882.53;;;13.29
31528;BMP280;10206;48.012;10.030;2023-04-24T01:43:29;93868.69;;;13.13
31528;BMP280;10206;48.012;10.030;2023-04-24T01:45:55;93869.94;;;13.10
31528;BMP280;10206;48.012;10.030;2023-04-24T01:48:21;93880.72;;;13.34
31528;BMP280;10206;48.012;10.030;2023-04-24T01:50:48;93874.81;;;13.12
31528;BMP280;10206;48.012;10.030;2023-04-24T01:53:14;93885.78;;;13.12
31528;BMP280;10206;48.012;10.030;2023-04-24T01:55:40;93875.63;;;13.14
31528;BMP280;10206;48.012;10.030;2023-04-24T01:58:07;93882.31;;;13.11
31528;BMP280;10206;48.012;10.030;2023-04-24T02:00:33;93882.41;;;13.13
31528;BMP280;10206;48.012;10.030;2023-04-24T02:02:59;93879.38;;;13.21
31528;BMP280;10206;48.012;10.030;2023-04-24T02:05:27;93874.91;;;13.14
31528;BMP280;10206;48.012;10.030;2023-04-24T02:07:53;93876.53;;;13.05
31528;BMP280;10206;48.012;10.030;2023-04-24T02:10:20;93872.09;;;13.12
31528;BMP280;10206;48.012;10.030;2023-04-24T02:12:46;93877.31;;;13.08
31528;BMP280;10206;48.012;10.030;2023-04-24T02:15:12;93875.41;;;13.10
31528;BMP280;10206;48.012;10.030;2023-04-24T02:17:38;93875.41;;;13.10
31528;BMP280;10206;48.012;10.030;2023-04-24T02:20:06;93874.97;;;13.02
31528;BMP280;10206;48.012;10.030;2023-04-24T02:22:32;93870.50;;;12.95
31528;BMP280;10206;48.012;10.030;2023-04-24T02:24:58;93866.88;;;13.04
31528;BMP280;10206;48.012;10.030;2023-04-24T02:27:24;93875.50;;;12.99
31528;BMP280;10206;48.012;10.030;2023-04-24T02:29:50;93876.59;;;13.07
31528;BMP280;10206;48.012;10.030;2023-04-24T02:32:16;93878.59;;;13.18
31528;BMP280;10206;48.012;10.030;2023-04-24T02:34:43;93883.72;;;13.12
31528;BMP280;10206;48.012;10.030;2023-04-24T02:37:09;93880.50;;;12.91
31528;BMP280;10206;48.012;10.030;2023-04-24T02:39:35;93879.38;;;12.82
31528;BMP280;10206;48.012;10.030;2023-04-24T02:42:01;93877.41;;;12.71
31528;BMP280;10206;48.012;10.030;2023-04-24T02:44:27;93883.91;;;12.78
31528;BMP280;10206;48.012;10.030;2023-04-24T02:46:53;93879.88;;;12.79
31528;BMP280;10206;48.012;10.030;2023-04-24T02:49:19;93874.16;;;12.75
31528;BMP280;10206;48.012;10.030;2023-04-24T02:51:46;93883.72;;;12.87
31528;BMP280;10206;48.012;10.030;2023-04-24T02:54:12;93876.41;;;12.78
31528;BMP280;10206;48.012;10.030;2023-04-24T02:56:38;93881.31;;;12.68
31528;BMP280;10206;48.012;10.030;2023-04-24T02:59:04;93871.97;;;12.85
31528;BMP280;10206;48.012;10.030;2023-04-24T03:01:30;93878.25;;;12.62
31528;BMP280;10206;48.012;10.030;2023-04-24T03:03:56;93878.16;;;12.85
31528;BMP280;10206;48.012;10.030;2023-04-24T03:06:22;93878.41;;;12.64
31528;BMP280;10206;48.012;10.030;2023-04-24T03:08:48;93885.81;;;12.75
31528;BMP280;10206;48.012;10.030;2023-04-24T03:11:14;93877.34;;;12.46
31528;BMP280;10206;48.012;10.030;2023-04-24T03:13:40;93879.19;;;12.67
31528;BMP280;10206;48.012;10.030;2023-04-24T03:16:06;93879.84;;;12.54
31528;BMP280;10206;48.012;10.030;2023-04-24T03:18:33;93874.44;;;12.67
31528;BMP280;10206;48.012;10.030;2023-04-24T03:20:59;93874.28;;;12.77
31528;BMP280;10206;48.012;10.030;2023-04-24T03:23:25;93863.59;;;12.69
31528;BMP280;10206;48.012;10.030;2023-04-24T03:25:51;93866.06;;;12.15
31528;BMP280;10206;48.012;10.030;2023-04-24T03:28:17;93865.09;;;12.59
31528;BMP280;10206;48.012;10.030;2023-04-24T03:30:43;93861.50;;;12.81
31528;BMP280;10206;48.012;10.030;2023-04-24T03:33:09;93857.16;;;12.51
31528;BMP280;10206;48.012;10.030;2023-04-24T03:35:35;93863.09;;;12.47
31528;BMP280;10206;48.012;10.030;2023-04-24T03:38:02;93867.81;;;12.59
31528;BMP280;10206;48.012;10.030;2023-04-24T03:40:30;93875.53;;;12.62
31528;BMP280;10206;48.012;10.030;2023-04-24T03:42:56;93872.53;;;12.33
31528;BMP280;10206;48.012;10.030;2023-04-24T03:45:22;93882.81;;;12.58
31528;BMP280;10206;48.012;10.030;2023-04-24T03:47:48;93874.75;;;12.48
31528;BMP280;10206;48.012;10.030;2023-04-24T03:50:14;93875.00;;;12.77
31528;BMP280;10206;48.012;10.030;2023-04-24T03:52:41;93875.97;;;12.70
31528;BMP280;10206;48.012;10.030;2023-04-24T03:55:07;93870.56;;;12.59
31528;BMP280;10206;48.012;10.030;2023-04-24T03:57:33;93873.25;;;12.45
31528;BMP280;10206;48.012;10.030;2023-04-24T03:59:59;93873.25;;;12.70
31528;BMP280;10206;48.012;10.030;2023-04-24T04:02:25;93877.06;;;12.65
31528;BMP280;10206;48.012;10.030;2023-04-24T04:04:51;93872.22;;;12.64
31528;BMP280;10206;48.012;10.030;2023-04-24T04:07:18;93882.09;;;12.57
31528;BMP280;10206;48.012;10.030;2023-04-24T04:09:45;93880.81;;;12.46
31528;BMP280;10206;48.012;10.030;2023-04-24T04:12:11;93885.31;;;12.54
31528;BMP280;10206;48.012;10.030;2023-04-24T04:14:38;93884.34;;;12.24
31528;BMP280;10206;48.012;10.030;2023-04-24T04:17:04;93881.63;;;12.49
31528;BMP280;10206;48.012;10.030;2023-04-24T04:19:30;93876.78;;;12.11
31528;BMP280;10206;48.012;10.030;2023-04-24T04:21:56;93876.13;;;12.35
31528;BMP280;10206;48.012;10.030;2023-04-24T04:24:22;93879.53;;;12.36
31528;BMP280;10206;48.012;10.030;2023-04-24T04:26:49;93891.81;;;12.35
31528;BMP280;10206;48.012;10.030;2023-04-24T04:29:17;93890.75;;;12.28
31528;BMP280;10206;48.012;10.030;2023-04-24T04:31:44;93888.69;;;12.40
31528;BMP280;10206;48.012;10.030;2023-04-24T04:34:10;93888.25;;;12.21
31528;BMP280;10206;48.012;10.030;2023-04-24T04:36:37;93891.50;;;12.54
31528;BMP280;10206;48.012;10.030;2023-04-24T04:39:06;93883.31;;;12.06
31528;BMP280;10206;48.012;10.030;2023-04-24T04:41:32;93894.94;;;12.18
31528;BMP280;10206;48.012;10.030;2023-04-24T04:44:01;93891.66;;;12.33
31528;BMP280;10206;48.012;10.030;2023-04-24T04:46:27;93886.75;;;12.18
31528;BMP280;10206;48.012;10.030;2023-04-24T04:48:58;93897.31;;;12.12
31528;BMP280;10206;48.012;10.030;2023-04-24T04:51:25;93888.00;;;12.28
31528;BMP280;10206;48.012;10.030;2023-04-24T04:53:51;93903.69;;;12.28
31528;BMP280;10206;48.012;10.030;2023-04-24T04:56:17;93897.59;;;11.81
31528;BMP280;10206;48.012;10.030;2023-04-24T04:58:43;93900.09;;;11.89
31528;BMP280;10206;48.012;10.030;2023-04-24T05:01:09;93899.03;;;11.94
31528;BMP280;10206;48.012;10.030;2023-04-24T05:03:35;93899.06;;;12.30
31528;BMP280;10206;48.012;10.030;2023-04-24T05:06:02;93909.78;;;12.15
31528;BMP280;10206;48.012;10.030;2023-04-24T05:08:28;93902.69;;;12.46
31528;BMP280;10206;48.012;10.030;2023-04-24T05:10:55;93917.25;;;12.26
31528;BMP280;10206;48.012;10.030;2023-04-24T05:13:22;93912.72;;;12.42
31528;BMP280;10206;48.012;10.030;2023-04-24T05:15:48;93912.81;;;12.44
31528;BMP280;10206;48.012;10.030;2023-04-24T05:18:14;93918.09;;;12.65
31528;BMP280;10206;48.012;10.030;2023-04-24T05:20:41;93928.72;;;12.59
31528;BMP280;10206;48.012;10.030;2023-04-24T05:23:09;93930.16;;;12.48
31528;BMP280;10206;48.012;10.030;2023-04-24T05:25:35;93928.75;;;12.36
31528;BMP280;10206;48.012;10.030;2023-04-24T05:28:02;93929.06;;;12.05
31528;BMP280;10206;48.012;10.030;2023-04-24T05:30:29;93926.13;;;12.49
31528;BMP280;10206;48.012;10.030;2023-04-24T05:32:55;93938.88;;;12.45
31528;BMP280;10206;48.012;10.030;2023-04-24T05:35:21;93934.38;;;12.38
31528;BMP280;10206;48.012;10.030;2023-04-24T05:37:47;93942.91;;;12.44
31528;BMP280;10206;48.012;10.030;2023-04-24T05:40:13;93943.66;;;12.70
31528;BMP280;10206;48.012;10.030;2023-04-24T05:42:39;93937.97;;;12.66
31528;BMP280;10206;48.012;10.030;2023-04-24T05:45:06;93941.13;;;12.37
31528;BMP280;10206;48.012;10.030;2023-04-24T05:47:32;93942.16;;;12.55
31528;BMP280;10206;48.012;10.030;2023-04-24T05:49:58;93949.78;;;12.82
31528;BMP280;10206;48.012;10.030;2023-04-24T05:52:24;93947.03;;;12.93
31528;BMP280;10206;48.012;10.030;2023-04-24T05:54:51;93948.03;;;13.11
31528;BMP280;10206;48.012;10.030;2023-04-24T05:57:17;93946.81;;;13.14
31528;BMP280;10206;48.012;10.030;2023-04-24T05:59:43;93952.84;;;12.99
31528;BMP280;10206;48.012;10.030;2023-04-24T06:02:09;93958.84;;;12.84
31528;BMP280;10206;48.012;10.030;2023-04-24T06:04:35;93947.38;;;12.99
31528;BMP280;10206;48.012;10.030;2023-04-24T06:07:01;93952.47;;;13.05
31528;BMP280;10206;48.012;10.030;2023-04-24T06:09:27;93956.06;;;13.21
31528;BMP280;10206;48.012;10.030;2023-04-24T06:11:53;93954.75;;;12.97
31528;BMP280;10206;48.012;10.030;2023-04-24T06:14:20;93955.44;;;12.97
31528;BMP280;10206;48.012;10.030;2023-04-24T06:16:46;93956.78;;;13.21
31528;BMP280;10206;48.012;10.030;2023-04-24T06:19:12;93956.47;;;13.29
31528;BMP280;10206;48.012;10.030;2023-04-24T06:21:38;93963.03;;;13.49
31528;BMP280;10206;48.012;10.030;2023-04-24T06:24:04;93968.38;;;13.08
31528;BMP280;10206;48.012;10.030;2023-04-24T06:26:30;93964.78;;;13.17
31528;BMP280;10206;48.012;10.030;2023-04-24T06:28:56;93979.88;;;13.44
31528;BMP280;10206;48.012;10.030;2023-04-24T06:31:24;93969.09;;;13.34
31528;BMP280;10206;48.012;10.030;2023-04-24T06:33:50;93974.75;;;12.99
31528;BMP280;10206;48.012;10.030;2023-04-24T06:36:16;93981.03;;;13.66
31528;BMP280;10206;48.012;10.030;2023-04-24T06:38:42;93983.09;;;13.40
31528;BMP280;10206;48.012;10.030;2023-04-24T06:41:09;93987.34;;;13.68
31528;BMP280;10206;48.012;10.030;2023-04-24T06:43:35;93984.34;;;13.00
31528;BMP280;10206;48.012;10.030;2023-04-24T06:46:01;93990.47;;;13.63
31528;BMP280;10206;48.012;10.030;2023-04-24T06:48:29;93996.00;;;13.01
31528;BMP280;10206;48.012;10.030;2023-04-24T06:50:55;94015.78;;;13.75
31528;BMP280;10206;48.012;10.030;2023-04-24T06:53:21;94011.31;;;13.43
31528;BMP280;10206;48.012;10.030;2023-04-24T06:55:47;94021.72;;;13.58
31528;BMP280;10206;48.012;10.030;2023-04-24T06:58:14;94013.00;;;13.61
31528;BMP280;10206;48.012;10.030;2023-04-24T07:00:41;94016.81;;;13.17
31528;BMP280;10206;48.012;10.030;2023-04-24T07:03:07;94030.38;;;13.15
31528;BMP280;10206;48.012;10.030;2023-04-24T07:05:33;94049.25;;;12.86
31528;BMP280;10206;48.012;10.030;2023-04-24T07:08:01;94048.28;;;12.22
31528;BMP280;10206;48.012;10.030;2023-04-24T07:10:27;94056.34;;;12.43
31528;BMP280;10206;48.012;10.030;2023-04-24T07:12:55;94064.91;;;12.37
31528;BMP280;10206;48.012;10.030;2023-04-24T07:15:22;94065.00;;;12.39
31528;BMP280;10206;48.012;10.030;2023-04-24T07:17:49;94062.16;;;11.58
31528;BMP280;10206;48.012;10.030;2023-04-24T07:20:15;94052.06;;;11.94
31528;BMP280;10206;48.012;10.030;2023-04-24T07:22:42;94050.16;;;12.19
31528;BMP280;10206;48.012;10.030;2023-04-24T07:25:09;94057.28;;;12.01
31528;BMP280;10206;48.012;10.030;2023-04-24T07:27:35;94056.09;;;12.27
31528;BMP280;10206;48.012;10.030;2023-04-24T07:30:03;94059.31;;;12.47
31528;BMP280;10206;48.012;10.030;2023-04-24T07:32:29;94058.00;;;12.48
31528;BMP280;10206;48.012;10.030;2023-04-24T07:34:56;94048.31;;;12.93
31528;BMP280;10206;48.012;10.030;2023-04-24T07:37:22;94055.44;;;13.35
31528;BMP280;10206;48.012;10.030;2023-04-24T07:39:48;94057.66;;;13.64
31528;BMP280;10206;48.012;10.030;2023-04-24T07:42:14;94059.34;;;13.82
31528;BMP280;10206;48.012;10.030;2023-04-24T07:44:40;94066.66;;;14.30
31528;BMP280;10206;48.012;10.030;2023-04-24T07:47:07;94065.09;;;14.14
31528;BMP280;10206;48.012;10.030;2023-04-24T07:49:33;94063.69;;;14.67
31528;BMP280;10206;48.012;10.030;2023-04-24T07:52:00;94069.38;;;14.71
31528;BMP280;10206;48.012;10.030;2023-04-24T07:54:28;94070.22;;;14.46
31528;BMP280;10206;48.012;10.030;2023-04-24T07:56:54;94068.34;;;14.92
31528;BMP280;10206;48.012;10.030;2023-04-24T07:59:20;94066.19;;;15.04
31528;BMP280;10206;48.012;10.030;2023-04-24T08:01:46;94065.41;;;14.88
31528;BMP280;10206;48.012;10.030;2023-04-24T08:04:13;94069.13;;;15.08
31528;BMP280;10206;48.012;10.030;2023-04-24T08:06:39;94061.75;;;14.42
31528;BMP280;10206;48.012;10.030;2023-04-24T08:09:05;94058.31;;;15.25
31528;BMP280;10206;48.012;10.030;2023-04-24T08:11:31;94060.34;;;15.54
31528;BMP280;10206;48.012;10.030;2023-04-24T08:13:57;94064.63;;;15.88
31528;BMP280;10206;48.012;10.030;2023-04-24T08:16:24;94057.97;;;16.24
31528;BMP280;10206;48.012;10.030;2023-04-24T08:18:50;94056.72;;;16.27
31528;BMP280;10206;48.012;10.030;2023-04-24T08:21:17;94067.59;;;16.56
31528;BMP280;10206;48.012;10.030;2023-04-24T08:23:44;94055.09;;;16.53
31528;BMP280;10206;48.012;10.030;2023-04-24T08:26:12;94062.34;;;16.96
31528;BMP280;10206;48.012;10.030;2023-04-24T08:28:38;94057.41;;;17.27
31528;BMP280;10206;48.012;10.030;2023-04-24T08:31:04;94052.13;;;17.51
31528;BMP280;10206;48.012;10.030;2023-04-24T08:33:31;94044.56;;;16.99
31528;BMP280;10206;48.012;10.030;2023-04-24T08:36:04;94048.66;;;17.33
31528;BMP280;10206;48.012;10.030;2023-04-24T08:38:30;94053.06;;;17.40
31528;BMP280;10206;48.012;10.030;2023-04-24T08:40:58;94045.97;;;17.00
31528;BMP280;10206;48.012;10.030;2023-04-24T08:43:26;94052.16;;;16.49
31528;BMP280;10206;48.012;10.030;2023-04-24T08:45:52;94046.88;;;16.38
31528;BMP280;10206;48.012;10.030;2023-04-24T08:48:22;94053.09;;;15.60
31528;BMP280;10206;48.012;10.030;2023-04-24T08:50:50;94066.31;;;15.80
31528;BMP280;10206;48.012;10.030;2023-04-24T08:53:17;94069.44;;;16.03
31528;BMP280;10206;48.012;10.030;2023-04-24T08:55:46;94076.50;;;15.77
31528;BMP280;10206;48.012;10.030;2023-04-24T08:58:13;94086.75;;;15.03
31528;BMP280;10206;48.012;10.030;2023-04-24T09:00:40;94087.56;;;15.05
31528;BMP280;10206;48.012;10.030;2023-04-24T09:03:10;94105.78;;;14.44
31528;BMP280;10206;48.012;10.030;2023-04-24T09:05:36;94112.47;;;13.39
31528;BMP280;10206;48.012;10.030;2023-04-24T09:08:05;94100.41;;;12.95
31528;BMP280;10206;48.012;10.030;2023-04-24T09:10:32;94092.50;;;12.30
31528;BMP280;10206;48.012;10.030;2023-04-24T09:13:00;94096.03;;;12.32
31528;BMP280;10206;48.012;10.030;2023-04-24T09:15:28;94111.53;;;11.84
31528;BMP280;10206;48.012;10.030;2023-04-24T09:17:55;94105.34;;;12.51
31528;BMP280;10206;48.012;10.030;2023-04-24T09:20:21;94085.41;;;11.81
31528;BMP280;10206;48.012;10.030;2023-04-24T09:22:47;94091.91;;;12.66
31528;BMP280;10206;48.012;10.030;2023-04-24T09:25:13;94089.25;;;12.68
31528;BMP280;10206;48.012;10.030;2023-04-24T09:27:44;94094.91;;;13.07
31528;BMP280;10206;48.012;10.030;2023-04-24T09:30:11;94091.03;;;13.85
31528;BMP280;10206;48.012;10.030;2023-04-24T09:32:37;94087.66;;;14.12
31528;BMP280;10206;48.012;10.030;2023-04-24T09:35:14;94088.19;;;14.63
31528;BMP280;10206;48.012;10.030;2023-04-24T09:37:45;94085.47;;;13.97
31528;BMP280;10206;48.012;10.030;2023-04-24T09:40:16;94094.84;;;15.01
31528;BMP280;10206;48.012;10.030;2023-04-24T09:42:51;94094.44;;;15.06
31528;BMP280;10206;48.012;10.030;2023-04-24T09:45:17;94090.00;;;15.87
31528;BMP280;10206;48.012;10.030;2023-04-24T09:47:43;94085.63;;;15.37
31528;BMP280;10206;48.012;10.030;2023-04-24T09:50:17;94092.56;;;15.38
31528;BMP280;10206;48.012;10.030;2023-04-24T09:52:55;94095.81;;;15.63
31528;BMP280;10206;48.012;10.030;2023-04-24T09:55:22;94092.94;;;16.06
31528;BMP280;10206;48.012;10.030;2023-04-24T09:57:53;94092.22;;;16.52
31528;BMP280;10206;48.012;10.030;2023-04-24T10:00:27;94078.38;;;16.19
31528;BMP280;10206;48.012;10.030;2023-04-24T10:02:58;94092.94;;;16.06
31528;BMP280;10206;48.012;10.030;2023-04-24T10:05:29;94092.13;;;15.43
31528;BMP280;10206;48.012;10.030;2023-04-24T10:08:09;94096.03;;;15.83
31528;BMP280;10206;48.012;10.030;2023-04-24T10:10:42;94106.34;;;15.53
31528;BMP280;10206;48.012;10.030;2023-04-24T10:13:10;94110.78;;;16.05
31528;BMP280;10206;48.012;10.030;2023-04-24T10:15:41;94105.41;;;15.78
31528;BMP280;10206;48.012;10.030;2023-04-24T10:18:08;94115.38;;;15.56
31528;BMP280;10206;48.012;10.030;2023-04-24T10:20:36;94119.97;;;15.51
31528;BMP280;10206;48.012;10.030;2023-04-24T10:23:03;94129.22;;;15.87
31528;BMP280;10206;48.012;10.030;2023-04-24T10:25:31;94117.84;;;15.79
31528;BMP280;10206;48.012;10.030;2023-04-24T10:27:58;94118.13;;;15.56
31528;BMP280;10206;48.012;10.030;2023-04-24T10:30:28;94127.91;;;15.16
31528;BMP280;10206;48.012;10.030;2023-04-24T10:32:54;94132.84;;;15.47
31528;BMP280;10206;48.012;10.030;2023-04-24T10:35:21;94131.91;;;15.42
31528;BMP280;10206;48.012;10.030;2023-04-24T10:38:03;94135.16;;;15.52
31528;BMP280;10206;48.012;10.030;2023-04-24T10:40:32;94127.09;;;16.01
31528;BMP280;10206;48.012;10.030;2023-04-24T10:43:01;94134.75;;;16.49
31528;BMP280;10206;48.012;10.030;2023-04-24T10:45:27;94126.63;;;17.18
31528;BMP280;10206;48.012;10.030;2023-04-24T10:50:23;94139.94;;;17.23
31528;BMP280;10206;48.012;10.030;2023-04-24T10:52:49;94127.22;;;16.83
31528;BMP280;10206;48.012;10.030;2023-04-24T10:55:39;94125.19;;;16.50
31528;BMP280;10206;48.012;10.030;2023-04-24T10:58:04;94129.25;;;16.65
31528;BMP280;10206;48.012;10.030;2023-04-24T11:00:31;94129.28;;;16.83
31528;BMP280;10206;48.012;10.030;2023-04-24T11:02:57;94133.31;;;16.80
31528;BMP280;10206;48.012;10.030;2023-04-24T11:11:02;94141.28;;;16.74
31528;BMP280;10206;48.012;10.030;2023-04-24T11:16:24;94146.56;;;16.21
31528;BMP280;10206;48.012;10.030;2023-04-24T11:18:59;94149.94;;;16.35
31528;BMP280;10206;48.012;10.030;2023-04-24T11:21:27;94139.16;;;16.72
31528;BMP280;10206;48.012;10.030;2023-04-24T11:23:57;94139.03;;;16.37
31528;BMP280;10206;48.012;10.030;2023-04-24T11:26:23;94150.22;;;16.41
31528;BMP280;10206;48.012;10.030;2023-04-24T11:29:07;94135.63;;;17.36
31528;BMP280;10206;48.012;10.030;2023-04-24T11:31:37;94134.34;;;17.39
31528;BMP280;10206;48.012;10.030;2023-04-24T11:34:11;94152.56;;;17.81
31528;BMP280;10206;48.012;10.030;2023-04-24T11:36:38;94123.88;;;17.88
31528;BMP280;10206;48.012;10.030;2023-04-24T11:39:04;94153.66;;;17.39
31528;BMP280;10206;48.012;10.030;2023-04-24T11:41:31;94155.91;;;16.76
31528;BMP280;10206;48.012;10.030;2023-04-24T11:43:58;94150.13;;;16.23
31528;BMP280;10206;48.012;10.030;2023-04-24T11:46:28;94145.22;;;16.69
31528;BMP280;10206;48.012;10.030;2023-04-24T11:48:55;94139.84;;;16.88
31528;BMP280;10206;48.012;10.030;2023-04-24T11:51:23;94156.09;;;17.31
31528;BMP280;10206;48.012;10.030;2023-04-24T11:53:51;94164.78;;;17.41
31528;BMP280;10206;48.012;10.030;2023-04-24T11:56:22;94165.78;;;18.02
31528;BMP280;10206;48.012;10.030;2023-04-24T11:58:48;94150.88;;;18.86
31528;BMP280;10206;48.012;10.030;2023-04-24T12:01:17;94150.53;;;18.78
31528;BMP280;10206;48.012;10.030;2023-04-24T12:03:48;94161.44;;;18.34
31528;BMP280;10206;48.012;10.030;2023-04-24T12:06:14;94168.63;;;18.61
31528;BMP280;10206;48.012;10.030;2023-04-24T12:08:40;94165.34;;;17.55
31528;BMP280;10206;48.012;10.030;2023-04-24T12:11:07;94175.16;;;18.50
31528;BMP280;10206;48.012;10.030;2023-04-24T12:13:34;94146.97;;;18.34
31528;BMP280;10206;48.012;10.030;2023-04-24T12:16:04;94159.75;;;19.04
31528;BMP280;10206;48.012;10.030;2023-04-24T12:18:31;94141.13;;;18.65
31528;BMP280;10206;48.012;10.030;2023-04-24T12:21:15;94168.13;;;16.89
31528;BMP280;10206;48.012;10.030;2023-04-24T12:23:43;94184.69;;;17.39
31528;BMP280;10206;48.012;10.030;2023-04-24T12:26:11;94178.22;;;17.00
31528;BMP280;10206;48.012;10.030;2023-04-24T12:28:38;94170.53;;;17.14
31528;BMP280;10206;48.012;10.030;2023-04-24T12:31:05;94183.91;;;17.37
31528;BMP280;10206;48.012;10.030;2023-04-24T12:33:35;94191.81;;;18.34
31528;BMP280;10206;48.012;10.030;2023-04-24T12:36:02;94166.00;;;18.46
31528;BMP280;10206;48.012;10.030;2023-04-24T12:38:29;94153.72;;;18.51
31528;BMP280;10206;48.012;10.030;2023-04-24T12:41:10;94167.47;;;17.74
31528;BMP280;10206;48.012;10.030;2023-04-24T12:43:37;94179.13;;;17.90
31528;BMP280;10206;48.012;10.030;2023-04-24T12:46:04;94179.91;;;17.40
31528;BMP280;10206;48.012;10.030;2023-04-24T12:48:31;94178.34;;;17.02
31528;BMP280;10206;48.012;10.030;2023-04-24T12:51:00;94182.19;;;16.64
31528;BMP280;10206;48.012;10.030;2023-04-24T12:53:29;94185.75;;;16.66
31528;BMP280;10206;48.012;10.030;2023-04-24T12:55:57;94186.63;;;16.71
31528;BMP280;10206;48.012;10.030;2023-04-24T12:58:23;94183.69;;;16.35
31528;BMP280;10206;48.012;10.030;2023-04-24T13:00:49;94188.09;;;16.11
31528;BMP280;10206;48.012;10.030;2023-04-24T13:03:15;94196.81;;;16.21
31528;BMP280;10206;48.012;10.030;2023-04-24T13:05:43;94194.06;;;16.21
31528;BMP280;10206;48.012;10.030;2023-04-24T13:08:09;94195.91;;;16.17
31528;BMP280;10206;48.012;10.030;2023-04-24T13:10:36;94195.97;;;16.03
31528;BMP280;10206;48.012;10.030;2023-04-24T13:13:02;94195.22;;;15.87
31528;BMP280;10206;48.012;10.030;2023-04-24T13:15:29;94195.38;;;15.76
31528;BMP280;10206;48.012;10.030;2023-04-24T13:17:55;94197.78;;;16.12
31528;BMP280;10206;48.012;10.030;2023-04-24T13:20:21;94190.66;;;15.49
31528;BMP280;10206;48.012;10.030;2023-04-24T13:22:47;94204.69;;;15.55
31528;BMP280;10206;48.012;10.030;2023-04-24T13:25:13;94193.50;;;15.51
31528;BMP280;10206;48.012;10.030;2023-04-24T13:27:42;94202.03;;;16.15
31528;BMP280;10206;48.012;10.030;2023-04-24T13:30:09;94194.94;;;15.81
31528;BMP280;10206;48.012;10.030;2023-04-24T13:32:35;94195.59;;;16.71
31528;BMP280;10206;48.012;10.030;2023-04-24T13:35:02;94195.28;;;17.12
31528;BMP280;10206;48.012;10.030;2023-04-24T13:37:28;94190.69;;;17.01
31528;BMP280;10206;48.012;10.030;2023-04-24T13:39:54;94181.38;;;16.30
31528;BMP280;10206;48.012;10.030;2023-04-24T13:42:20;94202.72;;;16.61
31528;BMP280;10206;48.012;10.030;2023-04-24T13:44:47;94188.94;;;16.76
31528;BMP280;10206;48.012;10.030;2023-04-24T13:47:13;94191.72;;;17.09
31528;BMP280;10206;48.012;10.030;2023-04-24T13:49:39;94181.34;;;17.41
31528;BMP280;10206;48.012;10.030;2023-04-24T13:52:05;94187.72;;;17.98
31528;BMP280;10206;48.012;10.030;2023-04-24T13:54:31;94185.91;;;17.87
31528;BMP280;10206;48.012;10.030;2023-04-24T13:56:58;94182.19;;;17.45
31528;BMP280;10206;48.012;10.030;2023-04-24T13:59:25;94180.84;;;17.64
31528;BMP280;10206;48.012;10.030;2023-04-24T14:01:51;94191.91;;;17.82
31528;BMP280;10206;48.012;10.030;2023-04-24T14:04:17;94184.31;;;17.47
31528;BMP280;10206;48.012;10.030;2023-04-24T14:06:44;94180.41;;;16.23